createdAt,value
2022-10-21T00:02:07.076Z,9.39
2022-10-21T00:07:09.854Z,9.46
2022-10-21T00:12:12.992Z,9.43
2022-10-21T00:17:15.621Z,9.41
2022-10-21T00:22:18.278Z,9.46
2022-10-21T00:27:20.976Z,9.43
2022-10-21T00:32:23.665Z,9.5
2022-10-21T00:37:26.307Z,9.51
2022-10-21T00:42:28.961Z,9.59
2022-10-21T00:47:31.804Z,9.58
2022-10-21T00:52:34.527Z,9.61
2022-10-21T00:57:37.512Z,9.61
2022-10-21T01:02:39.910Z,9.63
2022-10-21T01:07:42.906Z,9.54
2022-10-21T01:12:45.303Z,9.55
2022-10-21T01:17:48.234Z,9.51
2022-10-21T01:22:50.559Z,9.59
2022-10-21T01:27:53.206Z,9.57
2022-10-21T01:32:55.645Z,9.52
2022-10-21T01:37:58.267Z,9.52
2022-10-21T01:43:01.030Z,9.59
2022-10-21T01:48:03.547Z,9.6
2022-10-21T01:58:08.668Z,9.61
2022-10-21T02:03:11.271Z,9.63
2022-10-21T02:08:13.938Z,9.72
2022-10-21T02:13:16.629Z,9.7
2022-10-21T02:18:19.161Z,9.68
2022-10-21T02:23:21.680Z,9.7
2022-10-21T02:28:24.291Z,9.72
2022-10-21T02:33:26.875Z,9.73
2022-10-21T02:38:29.626Z,9.7
2022-10-21T02:43:32.702Z,9.74
2022-10-21T02:48:35.557Z,9.73
2022-10-21T02:53:38.225Z,9.8
2022-10-21T02:58:40.851Z,9.84
2022-10-21T03:03:43.461Z,9.85
2022-10-21T03:08:46.475Z,9.8
2022-10-21T03:13:49.198Z,9.84
2022-10-21T03:18:51.904Z,9.89
2022-10-21T03:23:54.734Z,9.87
2022-10-21T03:34:00.279Z,9.95
2022-10-21T03:39:02.921Z,10.01
2022-10-21T03:44:08.144Z,9.98
2022-10-21T03:49:17.034Z,10.02
2022-10-21T03:54:13.588Z,10.04
2022-10-21T04:04:19.460Z,10.01
2022-10-21T04:09:22.027Z,10.07
2022-10-21T04:14:24.813Z,10.06
2022-10-21T04:19:27.528Z,10.08
2022-10-21T04:24:30.085Z,10.06
2022-10-21T04:29:32.747Z,10.07
2022-10-21T04:34:35.345Z,10.02
2022-10-21T04:39:37.965Z,10.03
2022-10-21T04:44:40.783Z,10.02
2022-10-21T04:49:43.227Z,10.09
2022-10-21T04:54:45.777Z,10.08
2022-10-21T05:09:53.868Z,10.14
2022-10-21T05:14:56.546Z,10.17
2022-10-21T05:19:59.197Z,10.26
2022-10-21T05:25:01.857Z,10.28
2022-10-21T05:30:04.422Z,10.31
2022-10-21T05:35:06.951Z,10.33
2022-10-21T05:40:09.783Z,10.34
2022-10-21T05:45:12.416Z,10.37
2022-10-21T05:50:15.009Z,10.51
2022-10-21T05:55:17.886Z,10.52
2022-10-21T06:00:20.477Z,10.61
2022-10-21T06:05:22.933Z,10.61
2022-10-21T06:10:26.799Z,10.62
2022-10-21T06:15:28.437Z,10.68
2022-10-21T06:20:31.091Z,10.72
2022-10-21T06:30:36.305Z,10.78
2022-10-21T06:35:38.881Z,10.82
2022-10-21T06:40:41.483Z,10.92
2022-10-21T06:50:50.394Z,11.01
2022-10-21T06:55:52.883Z,10.97
2022-10-21T07:00:55.761Z,10.99
2022-10-21T07:11:01.207Z,11.35
2022-10-21T07:16:03.858Z,11.43
2022-10-21T07:21:06.568Z,11.44
2022-10-21T07:26:09.331Z,11.57
2022-10-21T07:31:11.863Z,11.52
2022-10-21T07:41:17.590Z,11.75
2022-10-21T07:46:20.490Z,11.9
2022-10-21T07:51:25.653Z,12.18
2022-10-21T07:56:26.086Z,12.38
2022-10-21T08:01:28.847Z,12.45
2022-10-21T08:06:31.648Z,12.62
2022-10-21T08:11:34.318Z,12.57
2022-10-21T08:16:36.971Z,12.52
2022-10-21T08:21:39.770Z,12.47
2022-10-21T08:26:45.414Z,12.88
2022-10-21T08:31:48.179Z,13.06
2022-10-21T08:36:50.840Z,13.25
2022-10-21T08:41:53.542Z,13.42
2022-10-21T08:51:59.127Z,14.12
2022-10-21T08:57:04.547Z,14.44
2022-10-21T09:02:07.418Z,14.19
2022-10-21T09:07:10.167Z,14.27
2022-10-21T09:12:12.793Z,14.73
2022-10-21T09:17:15.555Z,14.94
2022-10-21T09:22:35.484Z,15.01
2022-10-21T09:27:22.831Z,15.37
2022-10-21T09:32:23.505Z,15.31
2022-10-21T09:37:26.173Z,15.57
2022-10-21T09:42:46.185Z,15.65
2022-10-21T09:47:31.684Z,15.56
2022-10-21T09:52:34.557Z,16.09
2022-10-21T09:57:37.565Z,16.37
2022-10-21T10:02:40.167Z,16.37
2022-10-21T10:07:42.346Z,15.96
2022-10-21T10:12:45.070Z,16.29
2022-10-21T10:17:48.176Z,16.94
2022-10-21T10:22:50.838Z,16.89
2022-10-21T10:27:53.747Z,16.73
2022-10-21T10:32:56.389Z,16.43
2022-10-21T10:37:58.965Z,16.28
2022-10-21T10:43:01.946Z,16.75
2022-10-21T10:48:04.492Z,16.39
2022-10-21T10:53:07.148Z,16.43
2022-10-21T10:58:12.604Z,17.09
2022-10-21T11:03:12.968Z,17.66
2022-10-21T11:08:15.755Z,18.17
2022-10-21T11:13:18.778Z,18.22
2022-10-21T11:18:25.050Z,17.95
2022-10-21T11:23:23.829Z,17.52
2022-10-21T11:28:26.526Z,17.37
2022-10-21T11:33:29.161Z,17.62
2022-10-21T11:38:31.934Z,17.6
2022-10-21T11:43:37.400Z,17.72
2022-10-21T11:48:40.114Z,17.3
2022-10-21T11:53:42.926Z,17.45
2022-10-21T12:03:48.402Z,18.13
2022-10-21T12:08:51.807Z,17.93
2022-10-21T12:13:57.089Z,17.65
2022-10-21T12:18:59.910Z,17.7
2022-10-21T12:24:02.449Z,17.77
2022-10-21T12:29:04.839Z,17.36
2022-10-21T12:34:07.557Z,17.13
2022-10-21T12:39:09.919Z,17.17
2022-10-21T12:44:12.474Z,17.26
2022-10-21T12:49:15.257Z,17.34
2022-10-21T12:54:17.710Z,17.3
2022-10-21T12:59:20.522Z,17.4
2022-10-21T13:24:36.579Z,17.13
2022-10-21T13:29:39.033Z,16.93
2022-10-21T13:34:42.371Z,16.64
2022-10-21T13:39:44.146Z,16.56
2022-10-21T13:54:51.957Z,16.4
2022-10-21T13:59:54.452Z,16.36
2022-10-21T14:04:57.355Z,16.36
2022-10-21T14:09:59.824Z,16.18
2022-10-21T14:15:02.943Z,16.27
2022-10-21T14:20:05.714Z,16.19
2022-10-21T14:25:08.379Z,16.18
2022-10-21T14:30:10.879Z,16.18
2022-10-21T14:35:13.639Z,16.15
2022-10-21T14:45:18.842Z,16.05
2022-10-21T14:50:21.397Z,16.03
2022-10-21T14:55:23.998Z,15.97
2022-10-21T15:00:30.306Z,15.98
2022-10-21T15:10:34.845Z,15.86
2022-10-21T15:15:37.657Z,15.82
2022-10-21T15:20:40.233Z,15.84
2022-10-21T15:25:42.643Z,15.75
2022-10-21T15:30:45.362Z,15.72
2022-10-21T15:35:48.009Z,15.75
2022-10-21T15:40:51.007Z,15.71
2022-10-21T15:50:56.475Z,15.61
2022-10-21T15:56:01.910Z,15.6
2022-10-21T16:01:04.552Z,15.57
2022-10-21T16:06:07.068Z,15.46
2022-10-21T16:11:09.867Z,15.44
2022-10-21T16:16:12.415Z,15.46
2022-10-21T16:21:15.346Z,15.38
2022-10-21T16:26:20.791Z,15.34
2022-10-21T16:36:26.033Z,15.35
2022-10-21T16:41:28.648Z,15.34
2022-10-21T16:46:31.123Z,15.37
2022-10-21T16:51:36.896Z,15.38
2022-10-21T16:56:39.470Z,15.35
2022-10-21T17:01:42.017Z,15.31
2022-10-21T17:06:47.646Z,15.26
2022-10-21T17:11:50.362Z,15.2
2022-10-21T17:16:52.854Z,15.12
2022-10-21T17:21:55.508Z,15.09
2022-10-21T17:26:58.019Z,14.99
2022-10-21T17:32:00.700Z,15
2022-10-21T17:42:05.814Z,14.97
2022-10-21T17:47:11.170Z,14.95
2022-10-21T17:57:16.358Z,15
2022-10-21T18:02:19.133Z,15.04
2022-10-21T18:07:21.655Z,15
2022-10-21T18:17:29.807Z,15.05
2022-10-21T18:22:35.261Z,15.05
2022-10-21T18:27:37.965Z,15.05
2022-10-21T18:32:41.144Z,15.03
2022-10-21T18:37:43.515Z,15.02
2022-10-21T18:42:46.118Z,15.05
2022-10-21T18:47:48.938Z,15.04
2022-10-21T18:52:51.474Z,15.06
2022-10-21T18:57:54.556Z,15.09
2022-10-21T19:03:00.040Z,15.11
2022-10-21T19:08:02.855Z,15.09
2022-10-21T19:13:05.292Z,15.09
2022-10-21T19:18:07.999Z,15.06
2022-10-21T19:23:10.665Z,15.06
2022-10-21T19:33:16.174Z,15.01
2022-10-21T19:38:20.954Z,15.02
2022-10-21T19:43:21.764Z,15.07
2022-10-21T19:48:24.787Z,15.12
2022-10-21T19:53:27.313Z,15.1
2022-10-21T19:58:30.272Z,15.07
2022-10-21T20:03:32.922Z,15.1
2022-10-21T20:13:38.201Z,15.11
2022-10-21T20:18:40.903Z,15.12
2022-10-21T20:28:46.179Z,15.05
2022-10-21T20:33:48.983Z,15.1
2022-10-21T20:38:51.585Z,15.16
2022-10-21T20:43:54.250Z,15.15
2022-10-21T20:59:02.433Z,15.08
2022-10-21T21:04:05.213Z,15.05
2022-10-21T21:09:29.302Z,15.07
2022-10-21T21:19:13.377Z,15.11
2022-10-21T21:24:18.941Z,15.11
2022-10-21T21:29:22.127Z,15.13
2022-10-21T21:34:24.649Z,15.13
2022-10-21T21:39:27.172Z,15.17
2022-10-21T21:44:30.125Z,15.17
2022-10-21T21:49:32.749Z,15.17
2022-10-21T21:54:35.506Z,15.17
2022-10-21T22:04:43.787Z,15.07
2022-10-21T22:14:49.250Z,14.99
2022-10-21T22:19:53.913Z,14.89
2022-10-21T22:24:54.491Z,14.94
2022-10-21T22:29:57.166Z,14.95
2022-10-21T22:34:59.680Z,15.03
2022-10-21T22:40:02.167Z,15.01
2022-10-21T22:45:04.731Z,15.07
2022-10-21T22:50:07.663Z,15.1
2022-10-21T22:55:10.306Z,15.12
2022-10-21T23:00:12.969Z,15.18
2022-10-21T23:05:15.741Z,15.16
2022-10-21T23:10:18.234Z,15.21
2022-10-21T23:15:21.003Z,15.21
2022-10-21T23:20:26.314Z,15.21
2022-10-21T23:25:28.975Z,15.16
2022-10-21T23:30:31.514Z,15.15
2022-10-21T23:35:34.206Z,15.13
2022-10-21T23:40:39.737Z,15.1
2022-10-21T23:45:42.549Z,15.02
2022-10-21T23:55:50.643Z,14.92
